Hildegaard — C6QU3 — position and weather

sailwx.info

Track history (hours):
 
Tides and Currents Weather Stations Pressure Air Temp Water Temp Dewpoint Dewpoint Depression Visibility Wind Speed Wind Dir Waves Ship Positions

Hildegaard

Last reported at 2016-Dec-08 00:33 UTC. Time now 2016-Dec-08 04:12 UTC.
Position N 51°01' E 001°22'.

Length 248 m; draft 11.7 m.

Type: Ship (hazmat cat A). MMSI: 308574000.

Date/timePositionNaut miles runAvg speedWind from/ knotsBaromVisibWave heightAir tempDewpointWater temp
2016-Dec-08 00:33N 51°01' E 001°22'1312.6
2016-Dec-07 23:33N 51°09' E 001°37'1111.3
2016-Dec-07 22:33N 51°18' E 001°49'1010.4
2016-Dec-07 21:33N 51°27' E 001°56'10 9.9
2016-Dec-07 20:33N 51°35' E 002°07'10 9.6
2016-Dec-07 19:33N 51°42' E 002°17'10 9.7
2016-Dec-07 18:33N 51°49' E 002°28'10 9.5
2016-Dec-07 17:32N 51°57' E 002°37'1210.7
2016-Dec-07 16:27N 52°08' E 002°37'24410.2
2016-Dec-06 16:33N 55°32' W 001°10'4210.4
2016-Dec-06 12:32N 55°58' W 002°08'6 6.6
2016-Dec-06 11:33N 56°01' W 002°19'6 5.9
2016-Dec-06 10:33N 56°03' W 002°28'0 0.2
2016-Dec-06 09:33N 56°02' W 002°28'0 0.0
2016-Dec-06 08:33N 56°02' W 002°28'0 0.0
2016-Dec-06 07:33N 56°02' W 002°28'0 0.0
2016-Dec-06 06:33N 56°02' W 002°28'0 0.0
2016-Dec-06 05:33N 56°02' W 002°28'0 0.1
2016-Dec-06 04:33N 56°03' W 002°28'0 0.1
2016-Dec-06 03:33N 56°03' W 002°28'0 0.0
2016-Dec-06 02:33N 56°03' W 002°28'0 0.0
2016-Dec-06 01:33N 56°03' W 002°28'0 0.0
2016-Dec-06 00:33N 56°03' W 002°28'0 0.0
2016-Dec-05 23:33N 56°03' W 002°28'0 0.0
2016-Dec-05 22:33N 56°03' W 002°28'0 0.0
2016-Dec-05 21:33N 56°03' W 002°28'0 0.1
2016-Dec-05 20:33N 56°03' W 002°28'0 0.2
2016-Dec-05 19:33N 56°03' W 002°28'0 0.1
2016-Dec-05 18:33N 56°02' W 002°28'0 0.1
2016-Dec-05 17:33N 56°02' W 002°28'2 1.8
2016-Dec-05 16:33N 56°04' W 002°26'7 7.2
2016-Dec-05 15:33N 56°08' W 002°15'7 7.2
2016-Dec-05 14:33N 56°11' W 002°04'1 0.5
2016-Dec-05 12:23N 56°11' W 002°02'0 0.0
2016-Dec-05 11:31N 56°11' W 002°02'0 0.0
2016-Dec-05 10:25N 56°11' W 002°02'0 0.1
2016-Dec-05 09:33N 56°11' W 002°02'2 2.5
2016-Dec-05 08:33N 56°11' W 002°06'1010.4
2016-Dec-05 07:33N 56°06' W 002°23'5 4.7
2016-Dec-05 06:33N 56°03' W 002°29'0 0.3
2016-Dec-05 05:31N 56°03' W 002°29'0 0.0
2016-Dec-05 04:31N 56°03' W 002°29'0 0.0
2016-Dec-05 03:31N 56°03' W 002°29'0 0.1
2016-Dec-05 02:31N 56°03' W 002°29'0 0.1
2016-Dec-05 01:31N 56°03' W 002°29'0 0.1
2016-Dec-05 00:31N 56°03' W 002°29'0 0.0
2016-Dec-04 23:31N 56°03' W 002°29'0 0.0
2016-Dec-04 22:31N 56°03' W 002°29'0 0.1
2016-Dec-04 21:31N 56°03' W 002°29'0 0.1
2016-Dec-04 20:28N 56°03' W 002°29'0 0.1
2016-Dec-04 19:31N 56°03' W 002°29'0 0.0
2016-Dec-04 18:31N 56°03' W 002°29'0 0.1
2016-Dec-04 17:31N 56°03' W 002°29'0 0.1
2016-Dec-04 16:31N 56°03' W 002°29'0 0.0
2016-Dec-04 15:31N 56°03' W 002°29'0 0.0
2016-Dec-04 14:31N 56°03' W 002°29'0 0.1
2016-Dec-04 13:31N 56°03' W 002°29'0 0.1
2016-Dec-04 12:31N 56°03' W 002°29'0 0.1
2016-Dec-04 11:31N 56°03' W 002°29'0 0.1
2016-Dec-04 10:31N 56°03' W 002°29'0 0.1
2016-Dec-04 09:31N 56°03' W 002°29'0 0.1
2016-Dec-04 08:31N 56°03' W 002°29'0 0.0
2016-Dec-04 07:31N 56°03' W 002°29'0 0.0
2016-Dec-04 06:31N 56°03' W 002°29'0 0.0
2016-Dec-04 05:31N 56°03' W 002°29'0 0.1
2016-Dec-04 04:31N 56°03' W 002°29'0 0.0
2016-Dec-04 03:31N 56°03' W 002°29'0 0.0
2016-Dec-04 02:31N 56°03' W 002°29'0 0.1
2016-Dec-04 01:31N 56°03' W 002°29'0 0.1
2016-Dec-04 00:31N 56°03' W 002°29'0 0.0
2016-Dec-03 23:31N 56°03' W 002°29'0 0.1
2016-Dec-03 22:31N 56°03' W 002°29'0 0.1
2016-Dec-03 21:31N 56°03' W 002°29'0 0.0
2016-Dec-03 20:31N 56°03' W 002°29'0 0.0
2016-Dec-03 19:31N 56°03' W 002°29'0 0.0
2016-Dec-03 18:31N 56°03' W 002°29'0 0.0
2016-Dec-03 17:31N 56°03' W 002°29'0 0.0
2016-Dec-03 16:31N 56°03' W 002°29'0 0.0
2016-Dec-03 15:31N 56°03' W 002°29'0 0.0
2016-Dec-03 14:31N 56°03' W 002°29'0 0.1
2016-Dec-03 13:31N 56°03' W 002°29'0 0.0
2016-Dec-03 12:31N 56°03' W 002°29'0 0.1
2016-Dec-03 11:31N 56°03' W 002°29'0 0.0
2016-Dec-03 10:31N 56°03' W 002°29'0 0.1
2016-Dec-03 09:31N 56°03' W 002°29'0 0.1
2016-Dec-03 08:31N 56°03' W 002°29'0 0.0
2016-Dec-03 07:31N 56°03' W 002°29'0 0.0
2016-Dec-03 06:31N 56°03' W 002°29'0 0.0
2016-Dec-03 05:31N 56°03' W 002°29'0 0.0
2016-Dec-03 04:31N 56°03' W 002°29'0 0.0
2016-Dec-03 03:31N 56°03' W 002°29'0 0.0
2016-Dec-03 02:31N 56°03' W 002°29'0 0.0
2016-Dec-03 01:31N 56°03' W 002°29'0 0.1
2016-Dec-03 00:31N 56°03' W 002°29'0 0.0
2016-Dec-02 23:31N 56°03' W 002°29'0 0.0
2016-Dec-02 22:31N 56°03' W 002°29'0 0.0
2016-Dec-02 21:31N 56°03' W 002°29'0 0.1
2016-Dec-02 20:31N 56°03' W 002°29'0 0.1
2016-Dec-02 19:31N 56°03' W 002°29'0 0.0
2016-Dec-02 18:31N 56°03' W 002°29'0 0.0
2016-Dec-02 17:31N 56°03' W 002°29'0 0.0
2016-Dec-02 16:31N 56°03' W 002°29'0 0.0
2016-Dec-02 15:31N 56°03' W 002°29'0 0.0
2016-Dec-02 14:31N 56°03' W 002°29'0 0.0
2016-Dec-02 13:31N 56°03' W 002°29'0 0.1
2016-Dec-02 12:31N 56°03' W 002°29'0 0.0
2016-Dec-02 11:31N 56°03' W 002°29'0 0.0
2016-Dec-02 10:31N 56°03' W 002°29'0 0.0
2016-Dec-02 09:31N 56°03' W 002°29'0 0.1
2016-Dec-02 08:31N 56°03' W 002°29'0 0.0
2016-Dec-02 07:31N 56°03' W 002°29'0 0.0
2016-Dec-02 06:31N 56°03' W 002°29'0 0.0
2016-Dec-02 05:31N 56°03' W 002°29'0 0.0
2016-Dec-02 04:31N 56°03' W 002°29'0 0.0
2016-Dec-02 03:31N 56°03' W 002°29'0 0.0
2016-Dec-02 02:31N 56°03' W 002°29'0 0.0
2016-Dec-02 01:31N 56°03' W 002°29'0 0.0
2016-Dec-02 00:31N 56°03' W 002°29'0 0.2
2016-Dec-01 23:31N 56°03' W 002°29'0 0.1
2016-Dec-01 22:31N 56°03' W 002°29'0 0.1
2016-Dec-01 21:31N 56°03' W 002°29'0 0.1
2016-Dec-01 20:31N 56°03' W 002°29'0 0.0
2016-Dec-01 19:31N 56°03' W 002°29'0 0.0
2016-Dec-01 18:31N 56°03' W 002°29'0 0.0
2016-Dec-01 17:31N 56°03' W 002°29'0 0.0
2016-Dec-01 16:31N 56°03' W 002°29'0 0.0
2016-Dec-01 15:31N 56°03' W 002°29'0 0.0
2016-Dec-01 14:31N 56°03' W 002°29'0 0.0
2016-Dec-01 13:31N 56°03' W 002°29'0 0.0
2016-Dec-01 12:31N 56°03' W 002°29'0 0.0
2016-Dec-01 11:31N 56°03' W 002°29'0 0.0
2016-Dec-01 10:31N 56°03' W 002°29'0 0.0
2016-Dec-01 09:31N 56°03' W 002°29'0 0.0
2016-Dec-01 08:31N 56°03' W 002°29'0 0.0
2016-Dec-01 07:31N 56°03' W 002°29'0 0.0
2016-Dec-01 06:31N 56°03' W 002°29'0 0.0
2016-Dec-01 05:31N 56°03' W 002°29'0 0.0
2016-Dec-01 04:31N 56°03' W 002°29'0 0.0
2016-Dec-01 03:31N 56°03' W 002°29'0 0.0
2016-Dec-01 02:31N 56°03' W 002°29'0 0.0
2016-Dec-01 01:31N 56°03' W 002°29'0 0.0
2016-Dec-01 00:31N 56°03' W 002°29'0 0.0
2016-Nov-30 23:31N 56°03' W 002°29'0 0.1
2016-Nov-30 22:31N 56°03' W 002°29'0 0.0
2016-Nov-30 21:31N 56°03' W 002°29'0 0.0
2016-Nov-30 20:31N 56°03' W 002°29'0 0.0
2016-Nov-30 19:31N 56°03' W 002°29'0 0.0
2016-Nov-30 18:31N 56°03' W 002°29'0 0.0
2016-Nov-30 17:31N 56°03' W 002°29'0 0.0
2016-Nov-30 16:31N 56°03' W 002°29'0 0.0
2016-Nov-30 15:31N 56°03' W 002°29'0 0.0
2016-Nov-30 14:31N 56°03' W 002°29'0 0.0
2016-Nov-30 13:31N 56°03' W 002°29'0 0.0
2016-Nov-30 12:31N 56°03' W 002°29'0 0.1
2016-Nov-30 11:31N 56°03' W 002°29'0 0.1
2016-Nov-30 10:31N 56°03' W 002°29'0 0.0
2016-Nov-30 09:31N 56°03' W 002°29'0 0.0
2016-Nov-30 08:31N 56°03' W 002°29'0 0.0
2016-Nov-30 07:31N 56°03' W 002°29'0 0.0
2016-Nov-30 06:31N 56°03' W 002°29'0 0.0
2016-Nov-30 05:31N 56°03' W 002°29'0 0.0
2016-Nov-30 04:31N 56°03' W 002°29'0 0.0
2016-Nov-30 03:31N 56°03' W 002°29'0 0.0
2016-Nov-30 02:31N 56°03' W 002°29'0 0.0
2016-Nov-30 01:31N 56°03' W 002°29'0 0.0
2016-Nov-30 00:31N 56°03' W 002°29'0 0.0
2016-Nov-29 23:31N 56°03' W 002°29'0 0.0
2016-Nov-29 22:31N 56°03' W 002°29'0 0.0
2016-Nov-29 21:31N 56°03' W 002°29'0 0.0
2016-Nov-29 20:31N 56°03' W 002°29'0 0.0
2016-Nov-29 19:31N 56°03' W 002°29'0 0.0
2016-Nov-29 18:31N 56°03' W 002°29'0 0.0
2016-Nov-29 17:31N 56°03' W 002°29'0 0.0
2016-Nov-29 16:31N 56°03' W 002°29'0 0.0
2016-Nov-29 15:31N 56°03' W 002°29'0 0.0
2016-Nov-29 14:31N 56°03' W 002°29'0 0.0
2016-Nov-29 13:31N 56°03' W 002°29'0 0.0
2016-Nov-29 12:31N 56°03' W 002°29'0 0.0
2016-Nov-29 11:31N 56°03' W 002°29'0 0.1
2016-Nov-29 10:31N 56°03' W 002°29'0 0.1
2016-Nov-29 09:28N 56°03' W 002°29'0 0.0
2016-Nov-29 08:31N 56°03' W 002°29'0 0.0
2016-Nov-29 07:31N 56°03' W 002°29'0 0.1
2016-Nov-29 06:31N 56°03' W 002°29'0 0.1
2016-Nov-29 05:31N 56°03' W 002°29'0 0.0
2016-Nov-29 04:31N 56°03' W 002°29'0 0.0
2016-Nov-29 03:31N 56°03' W 002°29'0 0.0
2016-Nov-29 02:31N 56°03' W 002°29'0 0.0
2016-Nov-29 01:31N 56°03' W 002°29'0 0.2
2016-Nov-29 00:31N 56°03' W 002°29'0 0.1
2016-Nov-28 23:31N 56°03' W 002°29'0 0.0
2016-Nov-28 22:31N 56°03' W 002°29'0 0.0
2016-Nov-28 21:31N 56°03' W 002°29'0 0.0
2016-Nov-28 20:29N 56°03' W 002°29'0 0.0
2016-Nov-28 19:31N 56°03' W 002°29'0 0.1
2016-Nov-28 18:31N 56°03' W 002°29'0 0.1
2016-Nov-28 17:31N 56°03' W 002°29'0 0.0
2016-Nov-28 16:31N 56°03' W 002°29'0 0.0
2016-Nov-28 15:31N 56°03' W 002°29'0 0.0
2016-Nov-28 14:31N 56°03' W 002°29'0 0.0
2016-Nov-28 13:31N 56°03' W 002°29'0 0.0
2016-Nov-28 12:31N 56°03' W 002°29'0 0.1
2016-Nov-28 11:31N 56°03' W 002°29'0 0.1
2016-Nov-28 10:31N 56°03' W 002°29'0 0.0
2016-Nov-28 09:31N 56°03' W 002°29'0 0.0
2016-Nov-28 08:31N 56°03' W 002°29'0 0.0
2016-Nov-28 07:31N 56°03' W 002°29'0 0.0
2016-Nov-28 06:31N 56°03' W 002°29'0 0.1
2016-Nov-28 05:31N 56°03' W 002°29'0 0.0
2016-Nov-28 04:31N 56°03' W 002°29'0 0.0
2016-Nov-28 03:31N 56°03' W 002°29'0 0.1
2016-Nov-28 02:31N 56°03' W 002°29'0 0.0
2016-Nov-28 01:31N 56°03' W 002°29'  
Track history (hours):
 
Tides and Currents Weather Stations Pressure Air Temp Water Temp Dewpoint Dewpoint Depression Visibility Wind Speed Wind Dir Waves Ship Positions

Hildegaard

Last reported at 2016-Dec-08 00:33 UTC. Time now 2016-Dec-08 04:12 UTC.
Position N 51°01' E 001°22'.

Length 248 m; draft 11.7 m.

Type: Ship (hazmat cat A). MMSI: 308574000.

Date/timePositionNaut miles runAvg speedWind from/ knotsBaromVisibWave heightAir tempDewpointWater temp
2016-Dec-08 00:33N 51°01' E 001°22'1312.6
2016-Dec-07 23:33N 51°09' E 001°37'1111.3
2016-Dec-07 22:33N 51°18' E 001°49'1010.4
2016-Dec-07 21:33N 51°27' E 001°56'10 9.9
2016-Dec-07 20:33N 51°35' E 002°07'10 9.6
2016-Dec-07 19:33N 51°42' E 002°17'10 9.7
2016-Dec-07 18:33N 51°49' E 002°28'10 9.5
2016-Dec-07 17:32N 51°57' E 002°37'1210.7
2016-Dec-07 16:27N 52°08' E 002°37'24410.2
2016-Dec-06 16:33N 55°32' W 001°10'4210.4
2016-Dec-06 12:32N 55°58' W 002°08'6 6.6
2016-Dec-06 11:33N 56°01' W 002°19'6 5.9
2016-Dec-06 10:33N 56°03' W 002°28'0 0.2
2016-Dec-06 09:33N 56°02' W 002°28'0 0.0
2016-Dec-06 08:33N 56°02' W 002°28'0 0.0
2016-Dec-06 07:33N 56°02' W 002°28'0 0.0
2016-Dec-06 06:33N 56°02' W 002°28'0 0.0
2016-Dec-06 05:33N 56°02' W 002°28'0 0.1
2016-Dec-06 04:33N 56°03' W 002°28'0 0.1
2016-Dec-06 03:33N 56°03' W 002°28'0 0.0
2016-Dec-06 02:33N 56°03' W 002°28'0 0.0
2016-Dec-06 01:33N 56°03' W 002°28'0 0.0
2016-Dec-06 00:33N 56°03' W 002°28'0 0.0
2016-Dec-05 23:33N 56°03' W 002°28'0 0.0
2016-Dec-05 22:33N 56°03' W 002°28'0 0.0
2016-Dec-05 21:33N 56°03' W 002°28'0 0.1
2016-Dec-05 20:33N 56°03' W 002°28'0 0.2
2016-Dec-05 19:33N 56°03' W 002°28'0 0.1
2016-Dec-05 18:33N 56°02' W 002°28'0 0.1
2016-Dec-05 17:33N 56°02' W 002°28'2 1.8
2016-Dec-05 16:33N 56°04' W 002°26'7 7.2
2016-Dec-05 15:33N 56°08' W 002°15'7 7.2
2016-Dec-05 14:33N 56°11' W 002°04'1 0.5
2016-Dec-05 12:23N 56°11' W 002°02'0 0.0
2016-Dec-05 11:31N 56°11' W 002°02'0 0.0
2016-Dec-05 10:25N 56°11' W 002°02'0 0.1
2016-Dec-05 09:33N 56°11' W 002°02'2 2.5
2016-Dec-05 08:33N 56°11' W 002°06'1010.4
2016-Dec-05 07:33N 56°06' W 002°23'5 4.7
2016-Dec-05 06:33N 56°03' W 002°29'0 0.3
2016-Dec-05 05:31N 56°03' W 002°29'0 0.0
2016-Dec-05 04:31N 56°03' W 002°29'0 0.0
2016-Dec-05 03:31N 56°03' W 002°29'0 0.1
2016-Dec-05 02:31N 56°03' W 002°29'0 0.1
2016-Dec-05 01:31N 56°03' W 002°29'0 0.1
2016-Dec-05 00:31N 56°03' W 002°29'0 0.0
2016-Dec-04 23:31N 56°03' W 002°29'0 0.0
2016-Dec-04 22:31N 56°03' W 002°29'0 0.1
2016-Dec-04 21:31N 56°03' W 002°29'0 0.1
2016-Dec-04 20:28N 56°03' W 002°29'0 0.1
2016-Dec-04 19:31N 56°03' W 002°29'0 0.0
2016-Dec-04 18:31N 56°03' W 002°29'0 0.1
2016-Dec-04 17:31N 56°03' W 002°29'0 0.1
2016-Dec-04 16:31N 56°03' W 002°29'0 0.0
2016-Dec-04 15:31N 56°03' W 002°29'0 0.0
2016-Dec-04 14:31N 56°03' W 002°29'0 0.1
2016-Dec-04 13:31N 56°03' W 002°29'0 0.1
2016-Dec-04 12:31N 56°03' W 002°29'0 0.1
2016-Dec-04 11:31N 56°03' W 002°29'0 0.1
2016-Dec-04 10:31N 56°03' W 002°29'0 0.1
2016-Dec-04 09:31N 56°03' W 002°29'0 0.1
2016-Dec-04 08:31N 56°03' W 002°29'0 0.0
2016-Dec-04 07:31N 56°03' W 002°29'0 0.0
2016-Dec-04 06:31N 56°03' W 002°29'0 0.0
2016-Dec-04 05:31N 56°03' W 002°29'0 0.1
2016-Dec-04 04:31N 56°03' W 002°29'0 0.0
2016-Dec-04 03:31N 56°03' W 002°29'0 0.0
2016-Dec-04 02:31N 56°03' W 002°29'0 0.1
2016-Dec-04 01:31N 56°03' W 002°29'0 0.1
2016-Dec-04 00:31N 56°03' W 002°29'0 0.0
2016-Dec-03 23:31N 56°03' W 002°29'0 0.1
2016-Dec-03 22:31N 56°03' W 002°29'0 0.1
2016-Dec-03 21:31N 56°03' W 002°29'0 0.0
2016-Dec-03 20:31N 56°03' W 002°29'0 0.0
2016-Dec-03 19:31N 56°03' W 002°29'0 0.0
2016-Dec-03 18:31N 56°03' W 002°29'0 0.0
2016-Dec-03 17:31N 56°03' W 002°29'0 0.0
2016-Dec-03 16:31N 56°03' W 002°29'0 0.0
2016-Dec-03 15:31N 56°03' W 002°29'0 0.0
2016-Dec-03 14:31N 56°03' W 002°29'0 0.1
2016-Dec-03 13:31N 56°03' W 002°29'0 0.0
2016-Dec-03 12:31N 56°03' W 002°29'0 0.1
2016-Dec-03 11:31N 56°03' W 002°29'0 0.0
2016-Dec-03 10:31N 56°03' W 002°29'0 0.1
2016-Dec-03 09:31N 56°03' W 002°29'0 0.1
2016-Dec-03 08:31N 56°03' W 002°29'0 0.0
2016-Dec-03 07:31N 56°03' W 002°29'0 0.0
2016-Dec-03 06:31N 56°03' W 002°29'0 0.0
2016-Dec-03 05:31N 56°03' W 002°29'0 0.0
2016-Dec-03 04:31N 56°03' W 002°29'0 0.0
2016-Dec-03 03:31N 56°03' W 002°29'0 0.0
2016-Dec-03 02:31N 56°03' W 002°29'0 0.0
2016-Dec-03 01:31N 56°03' W 002°29'0 0.1
2016-Dec-03 00:31N 56°03' W 002°29'0 0.0
2016-Dec-02 23:31N 56°03' W 002°29'0 0.0
2016-Dec-02 22:31N 56°03' W 002°29'0 0.0
2016-Dec-02 21:31N 56°03' W 002°29'0 0.1
2016-Dec-02 20:31N 56°03' W 002°29'0 0.1
2016-Dec-02 19:31N 56°03' W 002°29'0 0.0
2016-Dec-02 18:31N 56°03' W 002°29'0 0.0
2016-Dec-02 17:31N 56°03' W 002°29'0 0.0
2016-Dec-02 16:31N 56°03' W 002°29'0 0.0
2016-Dec-02 15:31N 56°03' W 002°29'0 0.0
2016-Dec-02 14:31N 56°03' W 002°29'0 0.0
2016-Dec-02 13:31N 56°03' W 002°29'0 0.1
2016-Dec-02 12:31N 56°03' W 002°29'0 0.0
2016-Dec-02 11:31N 56°03' W 002°29'0 0.0
2016-Dec-02 10:31N 56°03' W 002°29'0 0.0
2016-Dec-02 09:31N 56°03' W 002°29'0 0.1
2016-Dec-02 08:31N 56°03' W 002°29'0 0.0
2016-Dec-02 07:31N 56°03' W 002°29'0 0.0
2016-Dec-02 06:31N 56°03' W 002°29'0 0.0
2016-Dec-02 05:31N 56°03' W 002°29'0 0.0
2016-Dec-02 04:31N 56°03' W 002°29'0 0.0
2016-Dec-02 03:31N 56°03' W 002°29'0 0.0
2016-Dec-02 02:31N 56°03' W 002°29'0 0.0
2016-Dec-02 01:31N 56°03' W 002°29'0 0.0
2016-Dec-02 00:31N 56°03' W 002°29'0 0.2
2016-Dec-01 23:31N 56°03' W 002°29'0 0.1
2016-Dec-01 22:31N 56°03' W 002°29'0 0.1
2016-Dec-01 21:31N 56°03' W 002°29'0 0.1
2016-Dec-01 20:31N 56°03' W 002°29'0 0.0
2016-Dec-01 19:31N 56°03' W 002°29'0 0.0
2016-Dec-01 18:31N 56°03' W 002°29'0 0.0
2016-Dec-01 17:31N 56°03' W 002°29'0 0.0
2016-Dec-01 16:31N 56°03' W 002°29'0 0.0
2016-Dec-01 15:31N 56°03' W 002°29'0 0.0
2016-Dec-01 14:31N 56°03' W 002°29'0 0.0
2016-Dec-01 13:31N 56°03' W 002°29'0 0.0
2016-Dec-01 12:31N 56°03' W 002°29'0 0.0
2016-Dec-01 11:31N 56°03' W 002°29'0 0.0
2016-Dec-01 10:31N 56°03' W 002°29'0 0.0
2016-Dec-01 09:31N 56°03' W 002°29'0 0.0
2016-Dec-01 08:31N 56°03' W 002°29'0 0.0
2016-Dec-01 07:31N 56°03' W 002°29'0 0.0
2016-Dec-01 06:31N 56°03' W 002°29'0 0.0
2016-Dec-01 05:31N 56°03' W 002°29'0 0.0
2016-Dec-01 04:31N 56°03' W 002°29'0 0.0
2016-Dec-01 03:31N 56°03' W 002°29'0 0.0
2016-Dec-01 02:31N 56°03' W 002°29'0 0.0
2016-Dec-01 01:31N 56°03' W 002°29'0 0.0
2016-Dec-01 00:31N 56°03' W 002°29'0 0.0
2016-Nov-30 23:31N 56°03' W 002°29'0 0.1
2016-Nov-30 22:31N 56°03' W 002°29'0 0.0
2016-Nov-30 21:31N 56°03' W 002°29'0 0.0
2016-Nov-30 20:31N 56°03' W 002°29'0 0.0
2016-Nov-30 19:31N 56°03' W 002°29'0 0.0
2016-Nov-30 18:31N 56°03' W 002°29'0 0.0
2016-Nov-30 17:31N 56°03' W 002°29'0 0.0
2016-Nov-30 16:31N 56°03' W 002°29'0 0.0
2016-Nov-30 15:31N 56°03' W 002°29'0 0.0
2016-Nov-30 14:31N 56°03' W 002°29'0 0.0
2016-Nov-30 13:31N 56°03' W 002°29'0 0.0
2016-Nov-30 12:31N 56°03' W 002°29'0 0.1
2016-Nov-30 11:31N 56°03' W 002°29'0 0.1
2016-Nov-30 10:31N 56°03' W 002°29'0 0.0
2016-Nov-30 09:31N 56°03' W 002°29'0 0.0
2016-Nov-30 08:31N 56°03' W 002°29'0 0.0
2016-Nov-30 07:31N 56°03' W 002°29'0 0.0
2016-Nov-30 06:31N 56°03' W 002°29'0 0.0
2016-Nov-30 05:31N 56°03' W 002°29'0 0.0
2016-Nov-30 04:31N 56°03' W 002°29'0 0.0
2016-Nov-30 03:31N 56°03' W 002°29'0 0.0
2016-Nov-30 02:31N 56°03' W 002°29'0 0.0
2016-Nov-30 01:31N 56°03' W 002°29'0 0.0
2016-Nov-30 00:31N 56°03' W 002°29'0 0.0
2016-Nov-29 23:31N 56°03' W 002°29'0 0.0
2016-Nov-29 22:31N 56°03' W 002°29'0 0.0
2016-Nov-29 21:31N 56°03' W 002°29'0 0.0
2016-Nov-29 20:31N 56°03' W 002°29'0 0.0
2016-Nov-29 19:31N 56°03' W 002°29'0 0.0
2016-Nov-29 18:31N 56°03' W 002°29'0 0.0
2016-Nov-29 17:31N 56°03' W 002°29'0 0.0
2016-Nov-29 16:31N 56°03' W 002°29'0 0.0
2016-Nov-29 15:31N 56°03' W 002°29'0 0.0
2016-Nov-29 14:31N 56°03' W 002°29'0 0.0
2016-Nov-29 13:31N 56°03' W 002°29'0 0.0
2016-Nov-29 12:31N 56°03' W 002°29'0 0.0
2016-Nov-29 11:31N 56°03' W 002°29'0 0.1
2016-Nov-29 10:31N 56°03' W 002°29'0 0.1
2016-Nov-29 09:28N 56°03' W 002°29'0 0.0
2016-Nov-29 08:31N 56°03' W 002°29'0 0.0
2016-Nov-29 07:31N 56°03' W 002°29'0 0.1
2016-Nov-29 06:31N 56°03' W 002°29'0 0.1
2016-Nov-29 05:31N 56°03' W 002°29'0 0.0
2016-Nov-29 04:31N 56°03' W 002°29'0 0.0
2016-Nov-29 03:31N 56°03' W 002°29'0 0.0
2016-Nov-29 02:31N 56°03' W 002°29'0 0.0
2016-Nov-29 01:31N 56°03' W 002°29'0 0.2
2016-Nov-29 00:31N 56°03' W 002°29'0 0.1
2016-Nov-28 23:31N 56°03' W 002°29'0 0.0
2016-Nov-28 22:31N 56°03' W 002°29'0 0.0
2016-Nov-28 21:31N 56°03' W 002°29'0 0.0
2016-Nov-28 20:29N 56°03' W 002°29'0 0.0
2016-Nov-28 19:31N 56°03' W 002°29'0 0.1
2016-Nov-28 18:31N 56°03' W 002°29'0 0.1
2016-Nov-28 17:31N 56°03' W 002°29'0 0.0
2016-Nov-28 16:31N 56°03' W 002°29'0 0.0
2016-Nov-28 15:31N 56°03' W 002°29'0 0.0
2016-Nov-28 14:31N 56°03' W 002°29'0 0.0
2016-Nov-28 13:31N 56°03' W 002°29'0 0.0
2016-Nov-28 12:31N 56°03' W 002°29'0 0.1
2016-Nov-28 11:31N 56°03' W 002°29'0 0.1
2016-Nov-28 10:31N 56°03' W 002°29'0 0.0
2016-Nov-28 09:31N 56°03' W 002°29'0 0.0
2016-Nov-28 08:31N 56°03' W 002°29'0 0.0
2016-Nov-28 07:31N 56°03' W 002°29'0 0.0
2016-Nov-28 06:31N 56°03' W 002°29'0 0.1
2016-Nov-28 05:31N 56°03' W 002°29'0 0.0
2016-Nov-28 04:31N 56°03' W 002°29'0 0.0
2016-Nov-28 03:31N 56°03' W 002°29'0 0.1
2016-Nov-28 02:31N 56°03' W 002°29'0 0.0
2016-Nov-28 01:31N 56°03' W 002°29'  

Dump ship's entire track history